Terminal Aerodrome Forecast
Issued by NWS

Home | Current Version | Previous Version | Text Only | Print | Product List | Glossary On
Versions: 1 2 3 4 5 6 7 8 9 10 11 12
000
FTUS44 KEPZ 101720
TAFDMN
TAF
KDMN 101720Z 1018/1118 24006KT P6SM FEW250
     FM110300 27006KT P6SM SCT250
     FM111600 27012G20KT P6SM FEW100 SCT250=

USA.gov is the U.S. government's official web portal to all federal, state and local government web resources and services.